Booth, Alabama
Current Conditions -  °F | °C
As of 9:55 PM on Thursday 18 Dec 2014 (Local Time) from K1A9 Reporting Station
Clear Clear  
Wind Chill: 45°   Ceiling: Unl
Heat Index: 45°   Visibility: 10mi
Dew Point: 37°   Wind: 3mph
Humidity: 74%   Direction: 300°WNW
Pressure: 30.17"   Gusts: NA
Location:  32.5°N, 86.57°W
Report Text: K1A9 190355Z AUTO 30003KT 10SM CLR 07/03 A3017 RMK AO2 T00710027
Loading
Personal Weather Stations






























Interactive Weather Map New forecast layout! Learn more

10-Day Weather Forecast

Advertisements
Track Severe Weather on mobile